Time;durP1;ratioP1;P1;durP2;ratioP2;P2;SDS_P1;SDS_P2;PMS_P1;PMS_P2;Temp;Humidity;BMP_temperature;BMP_pressure;BME280_temperature;BME280_humidity;BME280_pressure;Samples;Min_cycle;Max_cycle;Signal;HPM_P1;HPM_P2
2023/05/02 00:00:57;;;;;;;0.88;0.65;;;;;;;17.86;41.56;100264.81;4814961;29;20050;-68
2023/05/02 00:03:27;;;;;;;1.15;0.70;;;;;;;17.72;42.12;100271.00;4808324;29;20062;-68
2023/05/02 00:05:55;;;;;;;2.50;0.68;;;;;;;17.57;41.65;100260.66;4808562;29;20109;-68
2023/05/02 00:08:25;;;;;;;2.42;0.60;;;;;;;17.45;41.76;100245.03;4816457;29;20058;-68
2023/05/02 00:10:54;;;;;;;1.13;0.75;;;;;;;17.48;42.50;100264.22;4820745;29;20648;-69
2023/05/02 00:13:23;;;;;;;1.55;0.65;;;;;;;17.46;42.16;100265.97;4820173;29;20070;-68
2023/05/02 00:15:51;;;;;;;0.50;0.50;;;;;;;17.43;41.72;100272.94;4819032;29;20050;-68
2023/05/02 00:18:20;;;;;;;3.28;0.70;;;;;;;17.42;42.57;100279.06;4808663;29;20489;-68
2023/05/02 00:20:49;;;;;;;1.85;0.60;;;;;;;17.42;41.72;100276.44;4814788;29;20043;-68
2023/05/02 00:23:17;;;;;;;0.90;0.50;;;;;;;17.41;42.40;100280.81;4815629;29;20173;-68
2023/05/02 00:25:48;;;;;;;1.23;0.65;;;;;;;17.42;42.92;100276.44;4814596;29;20410;-69
2023/05/02 00:28:16;;;;;;;0.98;0.50;;;;;;;17.39;43.02;100269.50;4818179;29;20129;-69
2023/05/02 00:30:45;;;;;;;0.93;0.60;;;;;;;17.33;43.37;100257.31;4817650;29;20062;-68
2023/05/02 00:33:15;;;;;;;3.85;0.90;;;;;;;17.38;43.15;100263.41;4823633;29;20054;-69
2023/05/02 00:35:43;;;;;;;2.58;0.73;;;;;;;17.35;43.51;100266.00;4818350;29;20527;-68
2023/05/02 00:38:12;;;;;;;1.27;0.63;;;;;;;17.29;43.01;100263.44;4814880;29;20503;-69
2023/05/02 00:40:50;;;;;;;1.50;0.80;;;;;;;17.26;44.10;100260.84;4819481;29;20057;-68
2023/05/02 00:43:18;;;;;;;3.25;0.75;;;;;;;17.16;43.98;100252.19;4817752;29;20131;-70
2023/05/02 00:45:47;;;;;;;1.63;0.70;;;;;;;17.12;44.29;100252.22;4818069;29;20058;-70
2023/05/02 00:48:19;;;;;;;2.05;0.82;;;;;;;17.08;44.22;100255.72;4818864;29;20043;-70
2023/05/02 00:50:48;;;;;;;2.78;0.60;;;;;;;17.05;44.03;100254.00;4805532;29;20061;-71
2023/05/02 00:53:16;;;;;;;3.58;0.85;;;;;;;17.02;46.24;100260.97;4802788;29;20151;-71
2023/05/02 00:55:48;;;;;;;3.20;0.75;;;;;;;16.96;44.86;100251.41;4799619;29;20055;-70
2023/05/02 00:58:19;;;;;;;1.65;0.75;;;;;;;16.90;44.16;100246.22;4794646;29;20051;-70
2023/05/02 01:01:04;;;;;;;1.63;0.90;;;;;;;16.86;45.35;100240.16;4801074;29;20141;-71
2023/05/02 01:03:42;;;;;;;2.38;0.95;;;;;;;16.83;44.88;100249.72;4805608;29;20532;-71
2023/05/02 01:06:27;;;;;;;3.38;0.60;;;;;;;16.77;44.77;100245.38;4799319;29;20409;-71
2023/05/02 01:09:07;;;;;;;1.48;0.70;;;;;;;16.76;46.28;100241.00;4803390;29;20692;-71
2023/05/02 01:11:46;;;;;;;3.30;0.60;;;;;;;16.76;46.20;100227.94;4805233;29;20051;-72
2023/05/02 01:14:16;;;;;;;1.83;0.52;;;;;;;16.75;45.62;100234.06;4799929;29;20122;-70
2023/05/02 01:16:47;;;;;;;3.70;0.80;;;;;;;16.74;45.39;100229.69;4796969;29;20047;-70
2023/05/02 01:19:27;;;;;;;0.98;0.57;;;;;;;16.73;45.87;100234.06;4800308;29;20066;-72
2023/05/02 01:21:57;;;;;;;2.97;0.68;;;;;;;16.68;46.35;100250.66;4803372;29;20135;-68
2023/05/02 01:24:28;;;;;;;5.43;0.85;;;;;;;16.64;46.93;100243.69;4796319;29;20569;-69
2023/05/02 01:27:16;;;;;;;0.85;0.65;;;;;;;16.63;46.08;100261.09;4787773;29;20051;-68
2023/05/02 01:29:50;;;;;;;2.28;0.70;;;;;;;16.62;46.93;100261.09;4793494;29;20082;-68
2023/05/02 01:32:22;;;;;;;1.17;0.88;;;;;;;16.62;48.66;100255.88;4790807;29;20692;-69
2023/05/02 01:34:55;;;;;;;3.35;1.52;;;;;;;16.60;47.60;100257.63;4795046;29;20054;-69
2023/05/02 01:37:24;;;;;;;;;;;;;;;16.56;48.26;100267.22;4792754;29;20070;-69
2023/05/02 01:39:55;;;;;;;5.22;1.20;;;;;;;16.50;47.17;100262.88;4793264;29;20014;-68
2023/05/02 01:42:26;;;;;;;4.10;0.90;;;;;;;16.50;46.53;100262.88;4791156;29;20079;-68
2023/05/02 01:44:57;;;;;;;4.22;1.13;;;;;;;16.52;46.34;100260.28;4802770;29;20043;-69
2023/05/02 01:47:27;;;;;;;2.80;1.05;;;;;;;16.51;47.23;100254.16;4797248;29;20406;-68
2023/05/02 01:49:58;;;;;;;2.80;1.38;;;;;;;16.47;46.82;100249.84;4813594;29;20063;-67
2023/05/02 01:52:29;;;;;;;5.57;1.55;;;;;;;16.47;46.01;100257.66;4814248;29;20051;-66
2023/05/02 01:55:07;;;;;;;3.58;0.90;;;;;;;16.42;46.26;100264.63;4813345;29;20073;-69
2023/05/02 01:57:37;;;;;;;3.88;2.03;;;;;;;16.37;48.29;100274.22;4816822;29;20061;-67
2023/05/02 02:00:10;;;;;;;1.67;1.00;;;;;;;16.27;48.17;100264.69;4815106;29;20047;-67
2023/05/02 02:02:40;;;;;;;3.47;1.45;;;;;;;16.25;48.28;100274.25;4820598;29;20050;-67
2023/05/02 02:05:10;;;;;;;3.58;1.45;;;;;;;16.24;48.58;100262.94;4818601;29;20054;-67
2023/05/02 02:07:39;;;;;;;6.25;1.80;;;;;;;16.24;48.27;100262.94;4820065;29;20465;-67
2023/05/02 02:10:08;;;;;;;3.35;1.35;;;;;;;16.23;47.94;100257.72;4819690;29;20454;-67
2023/05/02 02:12:42;;;;;;;2.28;1.48;;;;;;;16.22;48.09;100248.16;4821994;29;20532;-67
2023/05/02 02:15:19;;;;;;;4.25;1.25;;;;;;;16.20;48.16;100244.69;4819035;29;20095;-66
2023/05/02 02:17:50;;;;;;;5.20;1.20;;;;;;;16.17;48.64;100242.94;4816864;29;21098;-68
2023/05/02 02:20:21;;;;;;;3.25;1.20;;;;;;;16.13;48.56;100241.22;4815460;29;20046;-68
2023/05/02 02:22:51;;;;;;;8.32;1.48;;;;;;;16.10;49.61;100247.31;4820789;29;20504;-68
2023/05/02 02:25:20;;;;;;;3.08;0.88;;;;;;;16.07;48.15;100239.47;4814517;29;20054;-67
2023/05/02 02:27:49;;;;;;;3.22;0.85;;;;;;;16.03;47.96;100229.88;4819418;29;20125;-68
2023/05/02 02:30:19;;;;;;;4.85;1.25;;;;;;;16.00;48.83;100235.13;4823677;29;20137;-68
2023/05/02 02:32:48;;;;;;;3.33;1.55;;;;;;;15.97;48.68;100240.34;4818182;29;20074;-67
2023/05/02 02:35:17;;;;;;;2.83;0.60;;;;;;;15.97;49.63;100242.09;4822795;29;20057;-67
2023/05/02 02:37:52;;;;;;;2.38;0.88;;;;;;;15.95;49.43;100252.53;4820408;29;20118;-67
2023/05/02 02:40:29;;;;;;;2.50;0.80;;;;;;;15.93;48.79;100250.78;4817025;29;20085;-67
2023/05/02 02:43:07;;;;;;;0.82;0.68;;;;;;;15.89;49.10;100252.53;4821594;29;20053;-67
2023/05/02 02:45:49;;;;;;;2.78;0.90;;;;;;;15.88;49.12;100246.44;4834709;29;20062;-68
2023/05/02 02:48:26;;;;;;;4.67;1.03;;;;;;;15.86;48.89;100247.31;4810508;29;20080;-67
2023/05/02 02:51:08;;;;;;;2.20;0.63;;;;;;;15.83;48.44;100257.75;4817516;29;20069;-68
2023/05/02 02:53:47;;;;;;;2.63;0.70;;;;;;;15.79;48.71;100259.47;4815247;29;20088;-68
2023/05/02 02:56:20;;;;;;;1.88;1.13;;;;;;;15.78;49.61;100254.25;4820054;29;20141;-68
2023/05/02 02:58:56;;;;;;;3.00;1.00;;;;;;;15.74;50.48;100239.50;4809462;29;20675;-68
2023/05/02 03:01:27;;;;;;;2.55;0.85;;;;;;;15.70;50.97;100247.31;4820536;29;20090;-68
2023/05/02 03:03:58;;;;;;;1.35;0.60;;;;;;;15.66;51.29;100263.78;4820360;29;20134;-68
2023/05/02 03:06:27;;;;;;;3.58;0.68;;;;;;;15.63;50.56;100283.78;4819891;29;20055;-68
2023/05/02 03:08:55;;;;;;;2.67;0.65;;;;;;;15.60;51.23;100263.78;4814541;29;20046;-68
2023/05/02 03:11:24;;;;;;;2.28;0.40;;;;;;;15.56;50.58;100225.53;4809865;29;20051;-68
2023/05/02 03:13:53;;;;;;;0.80;0.55;;;;;;;15.54;50.54;100240.31;4818490;29;20050;-68
2023/05/02 03:16:37;;;;;;;0.68;0.50;;;;;;;15.49;50.31;100275.94;4823516;29;20059;-67
2023/05/02 03:19:06;;;;;;;3.20;0.60;;;;;;;15.45;51.05;100282.00;4820596;29;20058;-68
2023/05/02 03:21:35;;;;;;;2.05;0.60;;;;;;;15.43;50.43;100268.09;4817229;29;20100;-68
2023/05/02 03:24:04;;;;;;;3.03;0.52;;;;;;;15.39;51.61;100271.56;4822724;29;20054;-67
2023/05/02 03:26:33;;;;;;;2.40;0.63;;;;;;;15.37;51.65;100276.78;4816310;29;20292;-68
2023/05/02 03:29:02;;;;;;;1.58;0.40;;;;;;;15.35;51.36;100277.66;4820154;29;20073;-69
2023/05/02 03:31:31;;;;;;;1.85;0.40;;;;;;;15.35;51.95;100295.91;4820745;29;20054;-69
2023/05/02 03:34:01;;;;;;;1.02;0.52;;;;;;;15.33;52.08;100302.84;4818815;29;20137;-68
2023/05/02 03:36:30;;;;;;;3.10;0.52;;;;;;;15.34;52.35;100304.56;4822196;29;20552;-67
2023/05/02 03:38:58;;;;;;;0.90;0.40;;;;;;;15.31;51.83;100307.19;4819837;29;20059;-68
2023/05/02 03:41:27;;;;;;;1.75;0.60;;;;;;;15.29;52.38;100313.25;4813596;29;20058;-68
2023/05/02 03:43:56;;;;;;;3.58;0.70;;;;;;;15.28;52.21;100316.72;4816426;29;20551;-69
2023/05/02 03:46:24;;;;;;;3.25;0.98;;;;;;;15.26;53.01;100308.03;4818678;29;20499;-69
2023/05/02 03:48:53;;;;;;;1.67;0.38;;;;;;;15.24;53.08;100304.56;4812276;29;20094;-68
2023/05/02 03:51:23;;;;;;;0.93;0.60;;;;;;;15.22;53.53;100303.66;4805530;29;20062;-68
2023/05/02 03:53:52;;;;;;;4.85;0.70;;;;;;;15.19;53.06;100298.47;4786527;29;20538;-68
2023/05/02 03:56:21;;;;;;;1.25;0.50;;;;;;;15.17;53.21;100291.50;4798576;29;20062;-68
2023/05/02 03:58:50;;;;;;;2.30;0.63;;;;;;;15.16;52.88;100287.13;4799841;29;20073;-69
2023/05/02 04:01:19;;;;;;;1.60;0.60;;;;;;;15.06;53.29;100278.44;4804449;29;20057;-69
2023/05/02 04:03:47;;;;;;;1.48;0.70;;;;;;;15.13;54.01;100300.16;4802184;29;20110;-69
2023/05/02 04:06:16;;;;;;;3.38;0.80;;;;;;;15.12;53.38;100304.53;4794636;29;20066;-68
2023/05/02 04:08:46;;;;;;;2.05;0.73;;;;;;;15.11;54.82;100286.25;4798148;29;20063;-67
2023/05/02 04:11:15;;;;;;;2.10;0.77;;;;;;;15.09;54.65;100281.03;4804359;29;20427;-68
2023/05/02 04:13:43;;;;;;;1.80;0.85;;;;;;;15.06;54.38;100273.22;4802718;29;20100;-68
2023/05/02 04:16:12;;;;;;;2.50;0.73;;;;;;;15.05;55.04;100261.06;4805373;29;20058;-68
2023/05/02 04:18:40;;;;;;;2.70;0.70;;;;;;;15.03;55.20;100262.81;4805813;29;20150;-68
2023/05/02 04:21:10;;;;;;;4.53;0.93;;;;;;;15.02;55.19;100274.06;4802662;29;20042;-68
2023/05/02 04:23:38;;;;;;;1.75;1.00;;;;;;;14.99;54.58;100274.06;4801465;29;20094;-68
2023/05/02 04:26:09;;;;;;;7.20;1.45;;;;;;;14.97;54.56;100284.47;4802095;29;20046;-69
2023/05/02 04:28:37;;;;;;;1.33;0.70;;;;;;;14.94;54.58;100292.28;4800902;29;20058;-69
2023/05/02 04:31:06;;;;;;;5.43;0.70;;;;;;;14.95;54.66;100295.75;4804750;29;20066;-69
2023/05/02 04:33:35;;;;;;;2.13;0.70;;;;;;;14.95;55.63;100291.41;4800767;29;20089;-68
2023/05/02 04:36:04;;;;;;;0.82;0.57;;;;;;;14.97;55.61;100283.59;4804950;29;20051;-68
2023/05/02 04:38:33;;;;;;;4.18;0.70;;;;;;;14.95;55.33;100286.19;4801650;29;20050;-68
2023/05/02 04:41:01;;;;;;;3.05;0.60;;;;;;;14.91;54.78;100289.66;4804861;29;20123;-69
2023/05/02 04:43:32;;;;;;;3.50;0.80;;;;;;;14.94;54.77;100291.44;4803799;29;20086;-69
2023/05/02 04:46:00;;;;;;;4.75;0.75;;;;;;;14.94;54.81;100300.09;4800289;29;20146;-68
2023/05/02 04:48:29;;;;;;;4.40;0.77;;;;;;;14.95;55.28;100316.59;4801280;29;20138;-68
2023/05/02 04:50:57;;;;;;;1.88;0.88;;;;;;;14.95;54.69;100319.19;4823154;29;20077;-68
2023/05/02 04:53:26;;;;;;;0.80;0.40;;;;;;;14.96;56.13;100313.16;4821364;29;20058;-68
2023/05/02 04:55:55;;;;;;;1.33;0.60;;;;;;;14.97;55.65;100304.44;4816356;29;20057;-68
2023/05/02 04:58:24;;;;;;;3.55;0.98;;;;;;;14.96;55.35;100310.53;4808924;29;20086;-68
2023/05/02 05:00:55;;;;;;;0.80;0.47;;;;;;;14.95;55.34;100320.06;4809471;29;20055;-67
2023/05/02 05:03:23;;;;;;;2.78;0.77;;;;;;;14.95;55.30;100342.66;4822607;29;20054;-68
2023/05/02 05:05:52;;;;;;;0.77;0.50;;;;;;;14.93;55.76;100357.41;4821243;29;20057;-70
2023/05/02 05:08:21;;;;;;;1.48;0.60;;;;;;;14.93;56.16;100355.66;4822170;29;20058;-68
2023/05/02 05:10:49;;;;;;;2.45;0.82;;;;;;;14.93;56.91;100362.59;4818984;29;20054;-69
2023/05/02 05:13:18;;;;;;;1.77;0.73;;;;;;;14.91;56.25;100366.94;4820219;29;20122;-69
2023/05/02 05:15:48;;;;;;;1.00;0.50;;;;;;;14.90;55.58;100367.81;4822880;29;20050;-69
2023/05/02 05:18:18;;;;;;;2.50;0.55;;;;;;;14.88;56.83;100380.81;4824542;29;20062;-69
2023/05/02 05:20:47;;;;;;;0.60;0.47;;;;;;;14.86;57.09;100391.22;4817668;29;20513;-69
2023/05/02 05:23:16;;;;;;;3.30;0.70;;;;;;;14.91;57.19;100388.63;4813804;29;20532;-69
2023/05/02 05:25:45;;;;;;;2.55;0.77;;;;;;;14.90;56.33;100386.91;4819163;29;20061;-68
2023/05/02 05:28:13;;;;;;;4.80;0.75;;;;;;;14.87;59.77;100390.38;4819297;29;20048;-68
2023/05/02 05:30:42;;;;;;;0.77;0.40;;;;;;;14.82;58.25;100402.50;4814598;29;20061;-69
2023/05/02 05:33:11;;;;;;;2.63;0.60;;;;;;;14.79;57.91;100404.19;4818542;29;20052;-69
2023/05/02 05:35:41;;;;;;;0.52;0.45;;;;;;;14.79;58.38;100410.28;4814860;29;20126;-68
2023/05/02 05:38:09;;;;;;;1.83;0.55;;;;;;;14.79;58.49;100410.28;4820663;29;20051;-67
2023/05/02 05:40:39;;;;;;;3.33;0.57;;;;;;;14.79;57.41;100412.88;4822508;29;20082;-68
2023/05/02 05:43:07;;;;;;;0.95;0.50;;;;;;;14.81;57.78;100408.56;4817931;29;20057;-69
2023/05/02 05:45:36;;;;;;;2.20;0.70;;;;;;;14.80;57.90;100406.81;4816569;29;20397;-68
2023/05/02 05:48:05;;;;;;;1.48;0.70;;;;;;;14.80;58.63;100396.41;4813027;29;20070;-68
2023/05/02 05:50:33;;;;;;;1.95;0.50;;;;;;;14.80;59.58;100386.00;4823786;29;20061;-69
2023/05/02 05:53:04;;;;;;;1.55;0.50;;;;;;;14.79;59.00;100370.34;4826337;29;20085;-68
2023/05/02 05:55:32;;;;;;;1.17;0.65;;;;;;;14.78;59.74;100361.66;4820608;29;20489;-69
2023/05/02 05:58:01;;;;;;;1.70;0.85;;;;;;;14.76;58.62;100352.09;4811581;29;20058;-68
2023/05/02 06:00:30;;;;;;;1.00;0.55;;;;;;;14.77;59.36;100333.00;4806365;29;20057;-69
2023/05/02 06:02:58;;;;;;;1.17;0.50;;;;;;;14.76;60.32;100303.50;4814473;29;20050;-68
2023/05/02 06:05:27;;;;;;;0.95;0.70;;;;;;;14.71;60.63;100271.34;4820672;29;20058;-69
2023/05/02 06:07:55;;;;;;;2.13;0.70;;;;;;;14.68;61.13;100263.50;4807048;29;20053;-68
2023/05/02 06:10:26;;;;;;;3.67;0.65;;;;;;;14.62;61.11;100251.34;4821364;29;20560;-68
2023/05/02 06:12:55;;;;;;;3.05;0.50;;;;;;;14.60;61.66;100254.81;4816034;29;20051;-68
2023/05/02 06:15:23;;;;;;;3.92;1.10;;;;;;;14.53;61.44;100250.41;4819532;29;20584;-68
2023/05/02 06:17:53;;;;;;;2.22;0.43;;;;;;;14.49;61.54;100272.06;4806705;29;20058;-69
2023/05/02 06:20:21;;;;;;;1.02;0.70;;;;;;;14.44;62.08;100285.91;4809268;29;20138;-68
2023/05/02 06:22:50;;;;;;;2.10;0.57;;;;;;;14.39;61.51;100302.38;4816662;29;20146;-69
2023/05/02 06:25:19;;;;;;;0.90;0.50;;;;;;;14.36;61.28;100311.03;4815240;29;20061;-68
2023/05/02 06:27:49;;;;;;;0.77;0.60;;;;;;;14.35;62.31;100329.22;4811098;29;20523;-69
2023/05/02 06:30:17;;;;;;;3.45;0.77;;;;;;;14.33;62.44;100321.41;4816729;29;20050;-69
2023/05/02 06:32:46;;;;;;;3.50;0.52;;;;;;;14.32;62.38;100322.28;4820911;29;20124;-69
2023/05/02 06:35:15;;;;;;;3.58;0.55;;;;;;;14.30;62.04;100337.00;4817765;29;20069;-67
2023/05/02 06:37:43;;;;;;;1.92;0.68;;;;;;;14.30;62.09;100343.94;4819020;29;20058;-68
2023/05/02 06:40:13;;;;;;;2.13;0.55;;;;;;;14.29;62.03;100330.03;4817452;29;20508;-68
2023/05/02 06:42:41;;;;;;;1.17;0.40;;;;;;;14.28;62.77;100328.31;4810611;29;20115;-68
2023/05/02 06:45:12;;;;;;;2.35;0.65;;;;;;;14.27;62.78;100294.47;4818736;29;20043;-68
2023/05/02 06:47:41;;;;;;;3.42;1.00;;;;;;;14.27;61.97;100266.72;4821173;29;20090;-68
2023/05/02 06:50:10;;;;;;;5.25;0.70;;;;;;;14.25;63.08;100240.69;4815502;29;20494;-68
2023/05/02 06:52:39;;;;;;;2.72;1.02;;;;;;;14.22;62.64;100225.06;4810970;29;20051;-67
2023/05/02 06:55:08;;;;;;;1.88;0.60;;;;;;;14.19;62.98;100225.03;4797717;29;20055;-68
2023/05/02 06:57:37;;;;;;;7.55;1.05;;;;;;;14.17;62.83;100246.69;4792413;29;20137;-68
2023/05/02 07:00:07;;;;;;;0.88;0.68;;;;;;;14.10;63.13;100270.94;4803210;29;20055;-67
2023/05/02 07:02:37;;;;;;;4.30;0.85;;;;;;;14.03;63.62;100302.09;4792590;29;20055;-68
2023/05/02 07:05:06;;;;;;;3.25;1.13;;;;;;;13.94;63.66;100325.44;4804303;29;20062;-68
2023/05/02 07:07:34;;;;;;;2.65;0.60;;;;;;;13.92;63.63;100334.09;4802359;29;20058;-67
2023/05/02 07:10:04;;;;;;;4.38;0.73;;;;;;;13.88;65.02;100341.00;4798906;29;20493;-67
2023/05/02 07:12:32;;;;;;;1.50;0.70;;;;;;;13.82;64.81;100339.19;4802702;29;20062;-67
2023/05/02 07:15:01;;;;;;;1.75;0.77;;;;;;;13.81;65.38;100321.88;4796698;29;20584;-67
2023/05/02 07:17:30;;;;;;;6.53;0.85;;;;;;;13.86;64.93;100318.41;4788946;29;20063;-68
2023/05/02 07:20:00;;;;;;;0.90;0.63;;;;;;;13.83;66.28;100327.97;4793033;29;20083;-67
2023/05/02 07:22:29;;;;;;;4.47;0.60;;;;;;;13.83;65.18;100334.84;4804333;29;20054;-67
2023/05/02 07:25:02;;;;;;;2.97;0.80;;;;;;;13.84;66.31;100310.63;4793137;29;20125;-67
2023/05/02 07:27:30;;;;;;;1.52;0.70;;;;;;;13.86;63.93;100282.00;4795615;29;20451;-67
2023/05/02 07:30:00;;;;;;;6.10;0.80;;;;;;;13.87;64.02;100284.63;4792459;29;20543;-67
2023/05/02 07:32:28;;;;;;;1.98;0.90;;;;;;;13.90;64.16;100278.56;4787196;29;20438;-67
2023/05/02 07:34:57;;;;;;;5.15;0.95;;;;;;;13.92;63.63;100261.25;4799689;29;20081;-68
2023/05/02 07:37:27;;;;;;;2.70;0.68;;;;;;;13.94;64.18;100242.19;4789045;29;20134;-68
2023/05/02 07:39:56;;;;;;;1.33;0.63;;;;;;;13.95;63.91;100219.66;4800125;29;20935;-68
2023/05/02 07:42:30;;;;;;;5.32;0.80;;;;;;;13.94;64.43;100197.13;4810747;29;20122;-68
2023/05/02 07:44:59;;;;;;;1.60;0.57;;;;;;;13.91;63.71;100192.78;4820144;29;20038;-68
2023/05/02 07:47:28;;;;;;;4.40;0.75;;;;;;;13.88;64.21;100182.34;4819262;29;20401;-68
2023/05/02 07:49:57;;;;;;;2.00;0.60;;;;;;;13.86;65.12;100183.19;4825564;29;20515;-68
2023/05/02 07:52:27;;;;;;;3.88;0.68;;;;;;;13.81;65.56;100181.44;4838329;29;20073;-68
2023/05/02 07:54:56;;;;;;;2.08;0.40;;;;;;;13.76;65.67;100203.91;4830619;29;20054;-68
2023/05/02 07:57:25;;;;;;;0.75;0.40;;;;;;;13.73;65.08;100229.03;4828341;29;20055;-68
2023/05/02 07:59:55;;;;;;;1.27;0.73;;;;;;;13.70;65.38;100239.41;4831694;29;20136;-67
2023/05/02 08:02:24;;;;;;;2.78;0.93;;;;;;;13.66;66.08;100243.72;4838444;29;20065;-67
2023/05/02 08:04:53;;;;;;;1.13;0.50;;;;;;;13.63;65.78;100264.50;4837106;29;20089;-68
2023/05/02 08:07:22;;;;;;;3.70;0.55;;;;;;;13.58;66.47;100287.84;4829823;29;20699;-68
2023/05/02 08:09:52;;;;;;;5.57;0.45;;;;;;;13.55;66.30;100279.13;4837778;29;20042;-68
2023/05/02 08:12:20;;;;;;;1.88;0.68;;;;;;;13.53;66.75;100267.84;4832357;29;20073;-68
2023/05/02 08:14:49;;;;;;;0.90;0.40;;;;;;;13.51;67.34;100267.81;4835981;29;20598;-68
2023/05/02 08:17:18;;;;;;;2.28;0.80;;;;;;;13.49;67.18;100274.75;4829672;29;20489;-68
2023/05/02 08:19:46;;;;;;;0.80;0.70;;;;;;;13.49;67.02;100277.38;4839032;29;20052;-68
2023/05/02 08:22:15;;;;;;;2.42;0.65;;;;;;;13.49;67.47;100277.38;4830896;29;20042;-68
2023/05/02 08:24:43;;;;;;;0.70;0.40;;;;;;;13.48;67.66;100257.41;4834752;29;20058;-68
2023/05/02 08:27:13;;;;;;;2.67;0.50;;;;;;;13.45;67.71;100239.19;4831903;29;20463;-69
2023/05/02 08:29:42;;;;;;;2.47;0.70;;;;;;;13.42;67.92;100244.34;4833219;29;20103;-68
2023/05/02 08:32:17;;;;;;;4.13;0.65;;;;;;;13.38;68.91;100260.78;4832933;29;20523;-68
2023/05/02 08:34:45;;;;;;;4.47;0.68;;;;;;;13.26;68.77;100251.09;4834806;29;20054;-68
2023/05/02 08:37:14;;;;;;;3.03;0.65;;;;;;;13.33;69.09;100270.25;4834122;29;20068;-67
2023/05/02 08:39:43;;;;;;;0.50;0.40;;;;;;;13.33;69.15;100275.44;4836251;29;20046;-67
2023/05/02 08:42:13;;;;;;;3.03;0.60;;;;;;;13.32;69.25;100264.19;4833851;29;20112;-67
2023/05/02 08:44:42;;;;;;;6.53;1.02;;;;;;;13.33;68.78;100249.44;4836987;29;20050;-66
2023/05/02 08:47:14;;;;;;;2.38;0.80;;;;;;;13.33;69.20;100257.25;4834996;29;20129;-67
2023/05/02 08:49:44;;;;;;;2.95;0.60;;;;;;;13.30;68.41;100272.81;4836619;29;20050;-68
2023/05/02 08:52:15;;;;;;;2.10;0.50;;;;;;;13.26;70.58;100281.41;4840451;29;20046;-68
2023/05/02 08:54:45;;;;;;;1.35;0.50;;;;;;;13.21;71.72;100294.34;4841634;29;20085;-68
2023/05/02 08:57:15;;;;;;;2.65;0.98;;;;;;;13.14;71.55;100295.97;4827903;29;20058;-68
2023/05/02 08:59:44;;;;;;;8.02;1.15;;;;;;;13.12;72.09;100302.88;4836894;29;20050;-68
2023/05/02 09:02:24;;;;;;;3.45;0.52;;;;;;;13.15;71.67;100315.94;4830228;29;20051;-68
2023/05/02 09:04:58;;;;;;;1.75;0.65;;;;;;;13.18;72.21;100315.97;4833954;29;20551;-68
2023/05/02 09:07:27;;;;;;;2.50;0.60;;;;;;;13.21;70.89;100303.00;4839237;29;20796;-68
2023/05/02 09:09:56;;;;;;;1.95;0.75;;;;;;;13.25;72.15;100287.47;4835758;29;20077;-68
2023/05/02 09:12:28;;;;;;;0.50;0.30;;;;;;;13.15;71.26;100227.59;4838004;29;20536;-69
2023/05/02 09:15:14;;;;;;;2.78;0.82;;;;;;;13.20;70.79;100175.69;4835839;29;20542;-69
2023/05/02 09:17:47;;;;;;;3.15;0.57;;;;;;;13.17;71.38;100119.41;4832160;29;20048;-68
2023/05/02 09:20:17;;;;;;;1.50;0.60;;;;;;;13.16;71.31;100075.22;4830875;29;20137;-69
2023/05/02 09:22:54;;;;;;;1.92;0.57;;;;;;;13.13;70.99;100024.13;4839447;29;20077;-68
2023/05/02 09:25:23;;;;;;;1.35;0.50;;;;;;;13.10;70.85;100018.91;4836327;29;20061;-68
2023/05/02 09:27:54;;;;;;;2.53;0.95;;;;;;;13.06;71.04;100001.56;4840878;29;20572;-69
2023/05/02 09:30:26;;;;;;;5.88;0.98;;;;;;;13.03;70.76;100011.91;4834634;29;20548;-68
2023/05/02 09:32:55;;;;;;;0.98;0.60;;;;;;;12.98;70.96;100066.41;4835346;29;20110;-67
2023/05/02 09:35:24;;;;;;;2.85;0.68;;;;;;;12.97;70.46;100120.94;4833746;29;20081;-68
2023/05/02 09:37:54;;;;;;;1.85;0.60;;;;;;;12.96;69.88;100171.13;4832747;29;20064;-68
2023/05/02 09:40:23;;;;;;;1.27;0.57;;;;;;;12.93;70.62;100169.38;4836309;29;20091;-68
2023/05/02 09:42:54;;;;;;;1.80;0.63;;;;;;;12.99;70.45;100165.97;4833214;29;20110;-68
2023/05/02 09:45:23;;;;;;;1.20;0.55;;;;;;;12.98;70.83;100177.19;4834572;29;20078;-67
2023/05/02 09:47:53;;;;;;;2.50;0.70;;;;;;;13.03;71.02;100185.91;4839504;29;20094;-68
2023/05/02 09:50:34;;;;;;;2.38;0.50;;;;;;;13.05;71.64;100172.94;4834496;29;20435;-68
2023/05/02 09:53:08;;;;;;;2.17;0.93;;;;;;;13.00;71.44;100191.06;4829006;29;20075;-68
2023/05/02 09:55:37;;;;;;;7.53;0.70;;;;;;;12.97;72.89;100193.66;4830227;29;20061;-67
2023/05/02 09:58:09;;;;;;;3.25;0.80;;;;;;;12.99;72.97;100191.94;4839864;29;20058;-68
2023/05/02 10:00:43;;;;;;;3.95;0.60;;;;;;;13.04;73.51;100179.00;4838397;29;20468;-67
2023/05/02 10:03:12;;;;;;;2.25;0.60;;;;;;;13.05;73.19;100185.94;4835893;29;20037;-68
2023/05/02 10:05:41;;;;;;;2.80;0.70;;;;;;;13.08;73.95;100178.16;4839327;29;20057;-68
2023/05/02 10:08:10;;;;;;;5.68;0.73;;;;;;;13.10;73.96;100179.94;4837774;29;20184;-68
2023/05/02 10:10:42;;;;;;;1.38;0.82;;;;;;;13.15;73.84;100178.25;4840625;29;20588;-68
2023/05/02 10:13:17;;;;;;;3.65;0.98;;;;;;;13.19;73.42;100168.75;4835588;29;20057;-68
2023/05/02 10:15:47;;;;;;;1.45;0.43;;;;;;;13.22;72.56;100158.41;4839807;29;20061;-68
2023/05/02 10:18:21;;;;;;;2.35;0.77;;;;;;;13.24;72.18;100145.41;4836540;29;20416;-68
2023/05/02 10:20:57;;;;;;;2.55;0.60;;;;;;;13.27;71.74;100150.66;4835932;29;20847;-68
2023/05/02 10:23:28;;;;;;;4.35;0.77;;;;;;;13.26;72.25;100148.91;4832221;29;20521;-68
2023/05/02 10:25:58;;;;;;;3.15;0.65;;;;;;;13.27;72.23;100145.44;4839997;29;20046;-68
2023/05/02 10:28:30;;;;;;;1.83;0.60;;;;;;;13.28;72.51;100142.03;4829769;29;20419;-67
2023/05/02 10:31:10;;;;;;;3.20;0.70;;;;;;;13.27;73.02;100145.44;4835557;29;20054;-68
2023/05/02 10:33:39;;;;;;;2.35;0.70;;;;;;;13.29;72.07;100143.78;4832422;29;20054;-68
2023/05/02 10:36:11;;;;;;;0.75;0.65;;;;;;;13.29;72.19;100148.97;4837519;29;20054;-68
2023/05/02 10:38:41;;;;;;;5.85;1.05;;;;;;;13.31;71.45;100147.22;4838426;29;20164;-68
2023/05/02 10:41:14;;;;;;;1.92;0.70;;;;;;;13.32;71.67;100141.19;4839917;29;20488;-68
2023/05/02 10:43:48;;;;;;;1.27;0.57;;;;;;;13.32;71.98;100123.00;4839099;29;20054;-68
2023/05/02 10:46:32;;;;;;;3.35;0.70;;;;;;;13.31;71.82;100106.56;4841218;29;20046;-68
2023/05/02 10:49:05;;;;;;;0.63;0.43;;;;;;;13.32;72.59;100107.41;4827052;29;20652;-68
2023/05/02 10:51:35;;;;;;;2.70;0.60;;;;;;;13.32;72.20;100097.03;4831159;29;20061;-68
2023/05/02 10:54:23;;;;;;;1.60;0.75;;;;;;;13.31;72.21;100096.16;4838095;29;20058;-68
2023/05/02 10:57:10;;;;;;;1.40;0.95;;;;;;;13.31;72.56;100118.66;4835365;29;20057;-68
2023/05/02 10:59:41;;;;;;;1.27;0.70;;;;;;;13.26;76.40;100139.38;4832518;29;20555;-68
2023/05/02 11:02:42;;;;;;;1.95;0.70;;;;;;;13.24;75.75;100159.28;4834429;29;20045;-68
2023/05/02 11:05:10;;;;;;;4.22;0.70;;;;;;;13.21;76.05;100170.50;4834378;29;20102;-69
2023/05/02 11:07:39;;;;;;;4.22;0.95;;;;;;;13.15;73.39;100167.88;4837507;29;20113;-68
2023/05/02 11:10:30;;;;;;;2.88;0.80;;;;;;;13.20;73.65;100155.78;4837467;29;20042;-68
2023/05/02 11:13:00;;;;;;;8.73;1.02;;;;;;;13.23;73.32;100144.53;4835783;29;20050;-68
2023/05/02 11:15:58;;;;;;;0.70;0.60;;;;;;;13.23;72.95;100143.69;4837793;29;20129;-68
2023/05/02 11:18:27;;;;;;;3.10;0.90;;;;;;;13.20;73.65;100145.38;4838385;29;20121;-68
2023/05/02 11:21:31;;;;;;;2.90;0.75;;;;;;;13.17;73.80;100150.56;4836733;29;20052;-68
2023/05/02 11:24:40;;;;;;;0.85;0.40;;;;;;;13.13;76.54;100151.38;4839223;29;20509;-68
2023/05/02 11:27:40;;;;;;;3.83;0.90;;;;;;;13.12;75.06;100152.22;4837299;29;20066;-68
2023/05/02 11:30:11;;;;;;;4.68;0.68;;;;;;;13.11;76.33;100140.13;4832953;29;20082;-68
2023/05/02 11:33:19;;;;;;;3.63;0.70;;;;;;;13.13;77.29;100146.19;4830460;29;20058;-68
2023/05/02 11:35:49;;;;;;;4.47;0.65;;;;;;;13.08;77.59;100160.88;4829740;29;20050;-69
2023/05/02 11:38:22;;;;;;;3.13;0.90;;;;;;;13.08;78.21;100159.97;4837765;29;20140;-69
2023/05/02 11:41:01;;;;;;;1.90;0.70;;;;;;;13.12;79.15;100143.56;4834387;29;20057;-69
2023/05/02 11:43:30;;;;;;;1.10;0.82;;;;;;;13.12;79.66;100128.00;4833946;29;20050;-69